Time;durP1;ratioP1;P1;durP2;ratioP2;P2;SDS_P1;SDS_P2;PMS_P1;PMS_P2;Temp;Humidity;BMP_temperature;BMP_pressure;BME280_temperature;BME280_humidity;BME280_pressure;Samples;Min_cycle;Max_cycle;Signal;HPM_P1;HPM_P2
2021/11/30 00:00:59;;;;;;;1.20;1.00;;;;;;;3.53;68.10;97164.36;1750148;79;20995;-53
2021/11/30 00:03:26;;;;;;;1.50;0.90;;;;;;;3.53;67.91;97171.02;1755504;79;20977;-53
2021/11/30 00:05:54;;;;;;;1.10;0.87;;;;;;;3.52;67.88;97171.48;1753991;79;20973;-54
2021/11/30 00:08:21;;;;;;;2.10;0.70;;;;;;;3.51;67.90;97176.42;1753481;79;20917;-54
2021/11/30 00:10:48;;;;;;;1.20;0.77;;;;;;;3.52;67.92;97175.95;1759638;79;22354;-54
2021/11/30 00:13:19;;;;;;;0.80;0.63;;;;;;;3.52;67.96;97178.61;1757449;79;21283;-53
2021/11/30 00:15:48;;;;;;;1.20;0.60;;;;;;;3.50;67.77;97192.47;1753449;79;21072;-53
2021/11/30 00:18:14;;;;;;;1.00;0.70;;;;;;;3.47;67.72;97217.47;1756272;79;21817;-53
2021/11/30 00:20:42;;;;;;;1.70;0.60;;;;;;;3.47;67.81;97196.19;1762747;79;21357;-53
2021/11/30 00:23:08;;;;;;;0.90;0.70;;;;;;;3.48;67.87;97202.36;1760638;79;21125;-53
2021/11/30 00:25:36;;;;;;;1.37;0.60;;;;;;;3.50;67.77;97204.44;1761091;79;21542;-53
2021/11/30 00:28:05;;;;;;;1.50;0.70;;;;;;;3.53;67.80;97218.41;1758464;79;20977;-53
2021/11/30 00:30:32;;;;;;;1.20;0.80;;;;;;;3.54;67.84;97202.84;1755108;79;21396;-53
2021/11/30 00:32:59;;;;;;;1.37;0.87;;;;;;;3.54;67.85;97208.16;1754542;79;20948;-53
2021/11/30 00:35:27;;;;;;;1.10;0.90;;;;;;;3.50;67.87;97212.41;1753463;79;21051;-53
2021/11/30 00:37:53;;;;;;;1.73;0.70;;;;;;;3.48;68.01;97207.21;1755582;79;21425;-54
2021/11/30 00:40:20;;;;;;;0.90;0.70;;;;;;;3.47;68.02;97213.47;1757560;79;20941;-53
2021/11/30 00:42:46;;;;;;;0.90;0.70;;;;;;;3.45;68.16;97206.52;1757744;79;21534;-53
2021/11/30 00:45:18;;;;;;;1.37;1.00;;;;;;;3.45;68.30;97214.03;1754431;79;21509;-53
2021/11/30 00:47:49;;;;;;;1.10;0.90;;;;;;;3.45;68.58;97218.49;1749902;79;21121;-53
2021/11/30 00:50:12;;;;;;;1.00;0.70;;;;;;;3.45;68.81;97229.98;1750884;79;21470;-54
2021/11/30 00:52:39;;;;;;;0.97;0.73;;;;;;;3.47;69.19;97226.77;1756587;79;21478;-54
2021/11/30 00:55:08;;;;;;;2.63;0.80;;;;;;;3.50;69.45;97233.69;1755988;79;20985;-53
2021/11/30 00:57:39;;;;;;;3.40;0.70;;;;;;;3.51;69.71;97246.90;1756057;79;20921;-53
2021/11/30 01:00:04;;;;;;;0.87;0.63;;;;;;;3.52;69.75;97256.59;1752670;79;21114;-53
2021/11/30 01:02:31;;;;;;;0.90;0.70;;;;;;;3.50;69.87;97245.66;1752632;79;21080;-54
2021/11/30 01:04:57;;;;;;;1.00;0.70;;;;;;;3.50;70.06;97250.97;1752174;79;21040;-54
2021/11/30 01:07:25;;;;;;;1.43;0.80;;;;;;;3.48;70.13;97248.44;1754511;79;21353;-53
2021/11/30 01:09:52;;;;;;;0.90;0.70;;;;;;;3.47;70.22;97250.70;1752725;79;21103;-53
2021/11/30 01:12:19;;;;;;;0.90;0.50;;;;;;;3.48;70.21;97250.23;1749308;79;22359;-54
2021/11/30 01:14:46;;;;;;;1.10;0.60;;;;;;;3.49;70.30;97250.12;1749666;80;21079;-53
2021/11/30 01:17:13;;;;;;;0.93;0.60;;;;;;;3.52;70.29;97245.95;1748031;79;21108;-53
2021/11/30 01:19:40;;;;;;;1.37;0.63;;;;;;;3.54;70.22;97251.19;1746413;79;21100;-53
2021/11/30 01:22:06;;;;;;;1.20;0.70;;;;;;;3.53;70.20;97237.03;1752304;80;20906;-53
2021/11/30 01:24:33;;;;;;;1.00;0.70;;;;;;;3.54;70.22;97253.38;1748009;79;21172;-53
2021/11/30 01:26:59;;;;;;;1.10;0.83;;;;;;;3.51;70.29;97246.05;1746677;79;21041;-53
2021/11/30 01:29:26;;;;;;;1.00;0.70;;;;;;;3.50;70.33;97254.97;1714622;80;21068;-53
2021/11/30 01:31:52;;;;;;;1.63;0.70;;;;;;;3.48;70.44;97261.73;1748210;79;21056;-53
2021/11/30 01:34:18;;;;;;;0.77;0.60;;;;;;;3.46;70.49;97260.09;1747655;79;21061;-53
2021/11/30 01:36:45;;;;;;;1.00;0.60;;;;;;;3.45;70.67;97251.27;1768637;78;22696;-53
2021/11/30 01:39:11;;;;;;;0.80;0.60;;;;;;;3.45;70.95;97251.27;1772612;78;22394;-54
2021/11/30 01:41:40;;;;;;;0.90;0.63;;;;;;;3.45;71.11;97264.56;1770882;78;21701;-53
2021/11/30 01:44:10;;;;;;;0.87;0.70;;;;;;;3.43;71.05;97249.16;1775765;78;21087;-53
2021/11/30 01:49:25;;;;;;;1.00;0.60;;;;;;;3.41;71.49;97258.55;1750136;79;20898;-54
2021/11/30 01:51:47;;;;;;;1.90;0.90;;;;;;;3.38;71.79;97279.17;1745071;80;20929;-53
2021/11/30 01:54:14;;;;;;;1.90;0.60;;;;;;;3.32;71.96;97269.73;1744277;79;21088;-53
2021/11/30 01:56:41;;;;;;;0.87;0.60;;;;;;;3.27;72.06;97269.16;1765260;79;21135;-53
2021/11/30 01:59:07;;;;;;;1.10;0.60;;;;;;;3.23;72.31;97274.25;1740220;79;21053;-54
2021/11/30 02:01:34;;;;;;;0.97;0.70;;;;;;;3.24;72.59;97265.80;1742528;80;21117;-54
2021/11/30 02:04:00;;;;;;;1.30;0.70;;;;;;;3.22;72.79;97261.94;1743383;80;21084;-53
2021/11/30 02:09:23;;;;;;;1.00;0.90;;;;;;;3.24;72.92;97275.11;1847035;75;23231;-54
2021/11/30 02:11:50;;;;;;;1.97;0.70;;;;;;;3.20;73.08;97286.41;1804599;77;21247;-54
2021/11/30 02:14:17;;;;;;;0.97;0.70;;;;;;;3.20;73.15;97277.11;1769951;78;21219;-54
2021/11/30 02:16:44;;;;;;;1.00;0.60;;;;;;;3.19;73.25;97271.87;1749985;78;22008;-54
2021/11/30 02:19:11;;;;;;;0.97;0.70;;;;;;;3.20;73.34;97284.22;1773969;78;21428;-54
2021/11/30 02:21:42;;;;;;;1.03;0.70;;;;;;;3.20;73.44;97283.75;1776974;78;21365;-54
2021/11/30 02:24:07;;;;;;;1.00;0.60;;;;;;;3.22;73.42;97286.33;1752673;79;20926;-54
2021/11/30 02:26:36;;;;;;;1.67;0.83;;;;;;;3.22;73.38;97285.86;1755295;79;21085;-54
2021/11/30 02:29:06;;;;;;;1.73;0.77;;;;;;;3.21;73.32;97286.80;1768648;79;20958;-54
2021/11/30 02:31:37;;;;;;;1.20;0.70;;;;;;;3.18;73.26;97297.59;1760004;79;22212;-54
2021/11/30 02:34:04;;;;;;;1.00;0.60;;;;;;;3.15;73.26;97291.62;1745031;81;21415;-53
2021/11/30 02:36:50;;;;;;;1.30;0.70;;;;;;;3.15;73.25;97289.78;1745148;81;20941;-53
2021/11/30 02:39:07;;;;;;;1.63;0.70;;;;;;;3.16;73.13;97288.84;1741470;81;21084;-54
2021/11/30 02:41:35;;;;;;;1.27;0.70;;;;;;;3.20;73.11;97284.22;1745778;80;20913;-54
2021/11/30 02:44:01;;;;;;;1.00;0.70;;;;;;;3.22;73.06;97296.49;1746083;81;20973;-54
2021/11/30 02:46:44;;;;;;;1.30;0.77;;;;;;;3.24;73.03;97288.40;1743961;80;21443;-53
2021/11/30 02:49:14;;;;;;;1.03;0.80;;;;;;;3.25;72.94;97294.11;1745786;80;20929;-54
2021/11/30 02:51:43;;;;;;;1.20;0.80;;;;;;;3.25;72.86;97298.95;1743924;81;22316;-54
2021/11/30 02:54:13;;;;;;;0.93;0.80;;;;;;;3.24;72.91;97303.88;1746609;81;20921;-54
2021/11/30 02:56:53;;;;;;;1.43;0.90;;;;;;;3.24;72.95;97309.20;1744899;81;20925;-54
2021/11/30 02:59:20;;;;;;;0.90;0.60;;;;;;;3.24;72.99;97307.87;1757032;80;20921;-54
2021/11/30 03:01:57;;;;;;;1.63;0.67;;;;;;;3.25;72.98;97312.24;1756648;80;20953;-54
2021/11/30 03:04:23;;;;;;;0.70;0.50;;;;;;;3.26;73.07;97323.73;1755736;80;21101;-54
2021/11/30 03:06:50;;;;;;;1.10;0.70;;;;;;;3.26;73.14;97315.77;1740575;81;20894;-54
2021/11/30 03:09:17;;;;;;;1.03;0.80;;;;;;;3.27;73.05;97314.34;1736196;81;20989;-53
2021/11/30 03:11:43;;;;;;;1.00;0.90;;;;;;;3.24;72.97;97322.49;1735131;81;20993;-54
2021/11/30 03:14:09;;;;;;;1.20;0.70;;;;;;;3.20;72.97;97319.64;1734992;81;21294;-54
2021/11/30 03:16:38;;;;;;;1.07;0.97;;;;;;;3.16;73.03;97311.44;1731210;81;21530;-54
2021/11/30 03:19:06;;;;;;;1.30;0.80;;;;;;;3.16;73.09;97310.58;1737220;81;20932;-54
2021/11/30 03:21:32;;;;;;;1.20;0.80;;;;;;;3.16;73.03;97319.41;1732225;81;21096;-54
2021/11/30 03:23:59;;;;;;;0.93;0.80;;;;;;;3.17;72.92;97322.93;1734124;80;21571;-54
2021/11/30 03:26:27;;;;;;;1.40;0.90;;;;;;;3.16;72.78;97318.09;1737697;81;21548;-54
2021/11/30 03:28:53;;;;;;;1.03;0.93;;;;;;;3.18;72.66;97324.65;1735887;80;21080;-53
2021/11/30 03:34:07;;;;;;;;;;;;;;;3.17;71.95;97333.56;1733189;81;21319;-54
2021/11/30 03:36:35;;;;;;;1.27;0.97;;;;;;;3.14;71.82;97341.27;1735214;81;20700;-53
2021/11/30 03:39:06;;;;;;;1.90;1.00;;;;;;;3.10;71.56;97334.86;1739225;81;20982;-54
2021/11/30 03:41:33;;;;;;;2.87;0.83;;;;;;;3.09;71.44;97332.67;1737725;81;21087;-54
2021/11/30 03:44:01;;;;;;;2.50;0.80;;;;;;;3.12;71.15;97344.95;1736052;80;21067;-53
2021/11/30 03:46:27;;;;;;;1.20;1.10;;;;;;;3.11;70.70;97329.47;1734395;81;21084;-54
2021/11/30 03:48:55;;;;;;;1.10;0.87;;;;;;;3.11;70.47;97348.54;1734038;81;21507;-53
2021/11/30 03:51:21;;;;;;;1.30;1.00;;;;;;;3.12;70.29;97335.64;1733895;81;21729;-53
2021/11/30 03:53:48;;;;;;;1.37;1.20;;;;;;;3.10;70.09;97351.67;1733139;81;22467;-54
2021/11/30 03:56:14;;;;;;;1.30;0.87;;;;;;;3.11;70.04;97335.25;1731621;81;21089;-53
2021/11/30 03:58:41;;;;;;;1.77;1.10;;;;;;;3.11;69.81;97344.55;1734280;81;21048;-53
2021/11/30 04:01:08;;;;;;;1.20;0.90;;;;;;;3.07;69.81;97350.50;1732957;81;21071;-54
2021/11/30 04:03:37;;;;;;;1.50;1.00;;;;;;;3.07;69.44;97357.61;1734701;81;21092;-54
2021/11/30 04:06:04;;;;;;;1.30;0.97;;;;;;;3.05;69.24;97365.70;1735150;80;21492;-54
2021/11/30 04:08:31;;;;;;;1.27;0.90;;;;;;;3.05;69.20;97361.72;1737650;81;21905;-54
2021/11/30 04:10:58;;;;;;;4.37;1.00;;;;;;;3.03;69.11;97363.13;1749203;81;21502;-54
2021/11/30 04:13:25;;;;;;;1.23;0.90;;;;;;;3.04;69.02;97373.28;1747618;81;21000;-54
2021/11/30 04:15:51;;;;;;;1.60;1.50;;;;;;;3.04;68.93;97385.24;1747644;81;21068;-53
2021/11/30 04:18:18;;;;;;;1.40;0.90;;;;;;;3.03;68.99;97402.98;1743459;81;21118;-53
2021/11/30 04:20:45;;;;;;;1.30;0.90;;;;;;;3.04;68.90;97387.44;1745323;81;21060;-54
2021/11/30 04:23:11;;;;;;;2.50;1.00;;;;;;;3.04;68.89;97389.23;1743106;81;21075;-54
2021/11/30 04:25:38;;;;;;;1.97;1.43;;;;;;;3.03;68.87;97396.34;1744876;81;21531;-54
2021/11/30 04:28:05;;;;;;;1.77;1.00;;;;;;;3.03;68.91;97402.98;1740572;81;21205;-54
2021/11/30 04:30:32;;;;;;;1.83;1.00;;;;;;;3.04;68.77;97407.83;1742531;81;21116;-54
2021/11/30 04:32:58;;;;;;;1.90;1.20;;;;;;;3.03;68.76;97422.92;1745759;81;21039;-54
2021/11/30 04:35:26;;;;;;;1.80;0.90;;;;;;;3.04;68.71;97419.80;1745494;81;21054;-54
2021/11/30 04:37:53;;;;;;;1.53;0.80;;;;;;;3.03;68.68;97410.96;1744454;81;21151;-54
2021/11/30 04:40:20;;;;;;;1.33;0.80;;;;;;;3.07;68.68;97409.44;1744125;81;21048;-53
2021/11/30 04:42:47;;;;;;;1.93;0.97;;;;;;;3.07;68.50;97418.27;1742906;81;21473;-53
2021/11/30 04:45:29;;;;;;;1.10;0.80;;;;;;;3.07;68.42;97431.56;1742644;81;21609;-54
2021/11/30 04:47:55;;;;;;;0.80;0.70;;;;;;;3.07;68.16;97426.72;1747472;79;20957;-54
2021/11/30 04:50:31;;;;;;;1.10;0.80;;;;;;;3.05;68.18;97430.81;1744355;79;20985;-54
2021/11/30 04:52:52;;;;;;;1.20;0.73;;;;;;;3.05;68.08;97438.79;1743453;81;22332;-54
2021/11/30 04:55:25;;;;;;;0.90;0.70;;;;;;;3.06;68.05;97436.99;1752072;81;21710;-54
2021/11/30 04:57:56;;;;;;;1.30;0.80;;;;;;;3.07;67.97;97447.98;1746767;81;20973;-54
2021/11/30 05:00:23;;;;;;;0.80;0.70;;;;;;;3.08;67.83;97445.72;1744590;80;21617;-54
2021/11/30 05:02:50;;;;;;;1.50;0.70;;;;;;;3.08;67.78;97450.56;1748704;81;20968;-54
2021/11/30 05:05:16;;;;;;;2.13;0.67;;;;;;;3.09;67.73;97450.95;1749689;78;20972;-54
2021/11/30 05:07:44;;;;;;;1.33;0.70;;;;;;;3.10;67.56;97446.50;1748083;81;21066;-54
2021/11/30 05:10:13;;;;;;;0.80;0.60;;;;;;;3.10;67.42;97442.51;1743962;81;20886;-54
2021/11/30 05:12:40;;;;;;;2.80;0.70;;;;;;;3.09;67.23;97461.58;1739772;81;20965;-54
2021/11/30 05:15:08;;;;;;;3.30;0.80;;;;;;;3.10;67.11;97453.14;1741745;81;20965;-54
2021/11/30 05:17:35;;;;;;;0.73;0.60;;;;;;;3.09;66.85;97461.58;1742266;81;20941;-54
2021/11/30 05:20:03;;;;;;;0.80;0.60;;;;;;;3.08;66.81;97457.20;1740920;81;21797;-54
2021/11/30 05:22:31;;;;;;;1.13;0.50;;;;;;;3.09;66.72;97460.26;1745169;81;21327;-54
2021/11/30 05:24:58;;;;;;;1.20;0.60;;;;;;;3.09;66.64;97470.89;1740188;81;20953;-54
2021/11/30 05:27:26;;;;;;;1.30;0.70;;;;;;;3.10;66.64;97470.42;1737805;81;20973;-53
2021/11/30 05:29:54;;;;;;;1.57;0.73;;;;;;;3.10;66.51;97472.61;1740152;81;20906;-54
2021/11/30 05:32:20;;;;;;;1.30;0.77;;;;;;;3.10;66.24;97483.70;1741493;81;21790;-54
2021/11/30 05:34:47;;;;;;;0.90;0.70;;;;;;;3.10;66.19;97486.37;1742697;81;21422;-54
2021/11/30 05:37:13;;;;;;;0.97;0.63;;;;;;;3.10;66.17;97475.73;1739917;81;20913;-53
2021/11/30 05:39:41;;;;;;;0.80;0.53;;;;;;;3.11;66.05;97498.25;1742130;81;20941;-53
2021/11/30 05:42:08;;;;;;;0.70;0.50;;;;;;;3.11;66.01;97493.41;1740069;81;21509;-54
2021/11/30 05:44:35;;;;;;;0.67;0.50;;;;;;;3.12;66.00;97508.41;1743901;81;21079;-54
2021/11/30 05:47:02;;;;;;;0.70;0.50;;;;;;;3.15;66.02;97510.42;1740032;81;20976;-54
2021/11/30 05:49:28;;;;;;;0.80;0.57;;;;;;;3.15;65.99;97529.53;1735134;81;21132;-54
2021/11/30 05:51:54;;;;;;;1.07;0.43;;;;;;;3.16;65.93;97527.23;1737004;79;21076;-54
2021/11/30 05:54:21;;;;;;;1.47;0.50;;;;;;;3.15;65.84;97527.70;1738213;81;21144;-54
2021/11/30 05:56:48;;;;;;;0.83;0.50;;;;;;;3.14;65.47;97529.13;1735126;81;21108;-53
2021/11/30 05:59:16;;;;;;;0.67;0.50;;;;;;;3.12;65.33;97539.84;1737033;81;21083;-53
2021/11/30 06:01:42;;;;;;;0.57;0.40;;;;;;;3.11;65.23;97546.56;1741125;81;21100;-54
2021/11/30 06:04:09;;;;;;;0.57;0.40;;;;;;;3.09;65.26;97548.44;1738680;81;21111;-53
2021/11/30 06:06:36;;;;;;;2.07;0.50;;;;;;;3.08;65.15;97559.54;1741148;81;21064;-54
2021/11/30 06:09:07;;;;;;;0.60;0.43;;;;;;;3.06;65.06;97558.78;1735159;81;21115;-54
2021/11/30 06:11:33;;;;;;;0.97;0.40;;;;;;;3.04;65.00;97557.53;1733650;81;21119;-54
2021/11/30 06:14:00;;;;;;;0.50;0.40;;;;;;;3.03;65.10;97577.54;1738310;81;21108;-54
2021/11/30 06:16:27;;;;;;;1.90;0.40;;;;;;;3.02;64.97;97569.17;1740586;81;20913;-53
2021/11/30 06:18:54;;;;;;;0.60;0.37;;;;;;;3.01;65.09;97587.38;1741239;81;21132;-54
2021/11/30 06:21:21;;;;;;;0.70;0.40;;;;;;;3.00;65.05;97585.19;1734957;81;21077;-53
2021/11/30 06:23:48;;;;;;;2.73;0.20;;;;;;;3.00;64.82;97587.85;1735982;80;21108;-53
2021/11/30 06:26:16;;;;;;;0.57;0.30;;;;;;;2.98;64.62;97606.14;1734917;81;21586;-53
2021/11/30 06:28:42;;;;;;;0.40;0.30;;;;;;;2.96;64.44;97594.28;1740349;81;20934;-55
2021/11/30 06:31:09;;;;;;;0.30;0.20;;;;;;;2.96;64.23;97606.24;1738319;81;20983;-54
2021/11/30 06:33:37;;;;;;;0.40;0.30;;;;;;;2.93;63.96;97594.90;1737489;81;21374;-53
2021/11/30 06:36:04;;;;;;;0.40;0.37;;;;;;;2.89;63.53;97602.16;1736329;81;21020;-53
2021/11/30 06:38:31;;;;;;;1.17;0.30;;;;;;;2.87;63.70;97616.02;1740130;81;20902;-53
2021/11/30 06:40:58;;;;;;;0.40;0.20;;;;;;;2.89;63.59;97612.78;1743118;81;21463;-54
2021/11/30 06:43:25;;;;;;;0.30;0.20;;;;;;;2.87;63.12;97599.21;1737515;81;21080;-54
2021/11/30 06:45:51;;;;;;;2.53;0.17;;;;;;;2.85;62.74;97612.56;1735971;81;21159;-54
2021/11/30 06:48:19;;;;;;;0.50;0.30;;;;;;;2.85;62.52;97605.92;1737917;81;21117;-53
2021/11/30 06:50:46;;;;;;;0.37;0.20;;;;;;;2.84;62.50;97615.30;1736055;81;21064;-54
2021/11/30 06:53:12;;;;;;;0.60;0.30;;;;;;;2.87;62.53;97616.02;1733613;81;21115;-54
2021/11/30 06:55:39;;;;;;;0.50;0.27;;;;;;;2.86;62.36;97607.65;1734193;81;21124;-54
2021/11/30 06:58:06;;;;;;;0.90;0.40;;;;;;;2.87;62.51;97607.18;1733241;81;21162;-54
2021/11/30 07:00:32;;;;;;;0.70;0.20;;;;;;;2.87;62.36;97607.18;1734769;81;21057;-53
2021/11/30 07:03:00;;;;;;;0.40;0.20;;;;;;;2.88;62.24;97608.91;1735155;81;21111;-53
2021/11/30 07:05:31;;;;;;;0.43;0.30;;;;;;;2.86;62.03;97626.25;1737280;81;21061;-54
2021/11/30 07:08:12;;;;;;;1.30;0.40;;;;;;;2.86;61.97;97614.76;1739851;80;22429;-53
2021/11/30 07:10:41;;;;;;;0.53;0.20;;;;;;;2.85;61.76;97608.58;1729093;81;22534;-53
2021/11/30 07:13:23;;;;;;;0.50;0.20;;;;;;;2.85;61.51;97603.27;1734792;81;21036;-53
2021/11/30 07:15:58;;;;;;;0.40;0.20;;;;;;;2.84;61.00;97600.22;1736533;81;21084;-53
2021/11/30 07:18:25;;;;;;;0.30;0.20;;;;;;;2.84;60.85;97616.16;1735599;81;21633;-54
2021/11/30 07:20:52;;;;;;;0.50;0.23;;;;;;;2.84;60.95;97612.17;1737158;81;21515;-54
2021/11/30 07:23:19;;;;;;;1.80;0.20;;;;;;;2.87;61.14;97620.00;1734155;81;21858;-54
2021/11/30 07:25:51;;;;;;;0.63;0.20;;;;;;;2.88;60.94;97626.17;1737557;81;21466;-53
2021/11/30 07:28:16;;;;;;;0.40;0.20;;;;;;;2.89;61.01;97624.74;1734927;81;21064;-53
2021/11/30 07:30:43;;;;;;;0.40;0.20;;;;;;;2.91;61.14;97626.86;1740469;81;21099;-53
2021/11/30 07:33:10;;;;;;;0.60;0.30;;;;;;;2.96;61.20;97633.28;1738519;81;21060;-54
2021/11/30 07:35:39;;;;;;;0.30;0.30;;;;;;;2.97;61.20;97627.03;1739262;81;21139;-54
2021/11/30 07:38:06;;;;;;;3.03;0.23;;;;;;;2.97;61.39;97633.68;1739343;75;21012;-55
2021/11/30 07:40:32;;;;;;;0.30;0.30;;;;;;;2.99;61.59;97631.78;1739501;81;20926;-54
2021/11/30 07:42:59;;;;;;;0.40;0.20;;;;;;;3.03;61.71;97634.69;1737305;81;21036;-56
2021/11/30 07:45:25;;;;;;;0.70;0.20;;;;;;;3.04;61.75;97635.94;1749011;80;21653;-55
2021/11/30 07:47:52;;;;;;;0.40;0.30;;;;;;;3.07;61.69;97646.00;1741301;81;21196;-55
2021/11/30 07:50:18;;;;;;;0.93;0.40;;;;;;;3.07;61.90;97630.91;1739301;80;21744;-54
2021/11/30 07:52:45;;;;;;;0.60;0.30;;;;;;;3.11;61.82;97636.94;1742783;81;21552;-55
2021/11/30 07:55:16;;;;;;;0.70;0.30;;;;;;;3.13;61.90;97633.74;1737933;81;22189;-55
2021/11/30 07:57:42;;;;;;;0.67;0.33;;;;;;;3.14;62.00;97644.77;1743745;81;20941;-55
2021/11/30 08:00:12;;;;;;;0.50;0.30;;;;;;;3.17;62.17;97650.77;1740719;81;21089;-55
2021/11/30 08:02:39;;;;;;;0.40;0.30;;;;;;;3.17;62.10;97645.45;1740210;81;20953;-55
2021/11/30 08:05:06;;;;;;;0.50;0.40;;;;;;;3.19;62.18;97644.91;1741853;81;21440;-55
2021/11/30 08:07:33;;;;;;;0.93;0.30;;;;;;;3.21;62.23;97640.38;1741496;81;20921;-55
2021/11/30 08:10:00;;;;;;;0.83;0.30;;;;;;;3.22;62.30;97646.09;1739612;81;21013;-56
2021/11/30 08:12:26;;;;;;;0.67;0.40;;;;;;;3.22;62.31;97646.56;1739724;81;21096;-55
2021/11/30 08:14:53;;;;;;;3.07;0.60;;;;;;;3.21;62.33;97641.70;1742063;81;20941;-55
2021/11/30 08:17:20;;;;;;;0.50;0.30;;;;;;;3.22;62.45;97641.24;1738624;81;21613;-55
2021/11/30 08:19:49;;;;;;;0.90;0.50;;;;;;;3.23;62.46;97644.30;1738572;81;20968;-55
2021/11/30 08:22:15;;;;;;;1.57;0.50;;;;;;;3.25;62.58;97638.41;1741249;81;20980;-55
2021/11/30 08:24:43;;;;;;;0.93;0.40;;;;;;;3.29;62.69;97639.51;1742163;81;21866;-56
2021/11/30 08:27:10;;;;;;;1.33;0.50;;;;;;;3.33;62.66;97646.83;1740144;81;20949;-55
2021/11/30 08:29:39;;;;;;;0.90;0.50;;;;;;;3.34;62.51;97646.76;1743011;81;21010;-55
2021/11/30 08:32:08;;;;;;;0.70;0.50;;;;;;;3.34;62.54;97641.91;1738443;81;20882;-55
2021/11/30 08:34:37;;;;;;;1.13;0.63;;;;;;;3.36;62.55;97649.34;1737786;81;21068;-55
2021/11/30 08:37:05;;;;;;;1.20;0.50;;;;;;;3.37;62.48;97641.29;1742852;79;21690;-56
2021/11/30 08:39:33;;;;;;;1.03;0.60;;;;;;;3.38;62.39;97644.81;1742165;81;21408;-55
2021/11/30 08:42:02;;;;;;;0.60;0.50;;;;;;;3.38;62.21;97647.00;1740305;81;20997;-55
2021/11/30 08:44:29;;;;;;;1.10;0.63;;;;;;;3.39;62.26;97644.73;1737964;81;21425;-55
2021/11/30 08:46:58;;;;;;;0.80;0.50;;;;;;;3.40;62.24;97649.09;1736329;81;21052;-55
2021/11/30 08:49:26;;;;;;;0.83;0.60;;;;;;;3.41;62.17;97643.30;1736702;81;21120;-55
2021/11/30 08:51:53;;;;;;;1.07;0.63;;;;;;;3.41;62.12;97641.97;1741025;81;20870;-55
2021/11/30 08:54:20;;;;;;;1.00;0.60;;;;;;;3.41;62.10;97639.31;1740103;81;22113;-56
2021/11/30 08:56:46;;;;;;;0.70;0.50;;;;;;;3.43;61.96;97640.09;1742029;81;21029;-55
2021/11/30 08:59:12;;;;;;;2.13;0.70;;;;;;;3.41;61.95;97630.00;1735409;81;21108;-55
2021/11/30 09:01:40;;;;;;;1.90;0.80;;;;;;;3.41;62.09;97633.99;1735065;81;21094;-55
2021/11/30 09:04:07;;;;;;;1.00;0.73;;;;;;;3.40;61.95;97630.97;1734442;81;22428;-55
2021/11/30 09:06:34;;;;;;;0.87;0.80;;;;;;;3.40;62.00;97636.29;1736266;81;21569;-55
2021/11/30 09:09:02;;;;;;;1.00;0.80;;;;;;;3.41;62.00;97631.33;1737724;81;21700;-55
2021/11/30 09:11:29;;;;;;;1.00;0.80;;;;;;;3.42;61.96;97634.38;1734097;81;21131;-55
2021/11/30 09:13:55;;;;;;;1.00;0.70;;;;;;;3.41;62.01;97633.52;1738359;81;22097;-55
2021/11/30 09:16:22;;;;;;;1.60;0.70;;;;;;;3.39;62.04;97630.11;1741058;81;21049;-55
2021/11/30 09:18:51;;;;;;;0.83;0.60;;;;;;;3.39;62.05;97638.55;1733793;81;21130;-54
2021/11/30 09:21:18;;;;;;;1.33;0.60;;;;;;;3.34;62.00;97645.43;1734782;81;22570;-55
2021/11/30 09:23:45;;;;;;;1.10;0.70;;;;;;;3.32;62.06;97639.33;1737596;81;21483;-55
2021/11/30 09:26:12;;;;;;;1.30;0.80;;;;;;;3.31;61.96;97632.31;1738821;81;21599;-55
2021/11/30 09:28:39;;;;;;;1.00;0.70;;;;;;;3.33;62.04;97631.73;1744484;81;22068;-55
2021/11/30 09:31:06;;;;;;;1.43;0.70;;;;;;;3.33;61.94;97637.06;1739039;81;20973;-55
2021/11/30 09:33:32;;;;;;;1.93;0.80;;;;;;;3.34;61.90;97643.23;1736219;81;21089;-55
2021/11/30 09:36:00;;;;;;;0.77;0.60;;;;;;;3.33;61.62;97627.75;1737148;81;21084;-54
2021/11/30 09:38:27;;;;;;;1.03;0.63;;;;;;;3.31;61.59;97631.45;1736668;81;21982;-53
2021/11/30 09:40:58;;;;;;;2.83;0.60;;;;;;;3.30;61.43;97627.94;1735605;81;21068;-53
2021/11/30 09:43:22;;;;;;;0.83;0.40;;;;;;;3.29;61.50;97624.88;1737976;79;21109;-55
2021/11/30 09:45:49;;;;;;;0.90;0.60;;;;;;;3.29;60.87;97626.68;1743788;81;21059;-55
2021/11/30 09:48:15;;;;;;;0.87;0.50;;;;;;;3.26;60.77;97621.05;1737508;81;21037;-55
2021/11/30 09:50:45;;;;;;;0.90;0.70;;;;;;;3.26;60.73;97625.50;1735698;81;20984;-55
2021/11/30 09:53:12;;;;;;;1.73;1.00;;;;;;;3.27;60.57;97616.59;1740326;81;21065;-55
2021/11/30 09:55:39;;;;;;;0.80;0.50;;;;;;;3.26;60.44;97618.39;1737196;81;21036;-54
2021/11/30 09:58:06;;;;;;;0.90;0.40;;;;;;;3.26;60.20;97630.82;1735069;81;21060;-55
2021/11/30 10:00:34;;;;;;;1.47;0.53;;;;;;;3.26;60.24;97616.20;1734824;81;21092;-54
2021/11/30 10:03:01;;;;;;;0.90;0.50;;;;;;;3.27;60.12;97616.13;1732137;81;21452;-55
2021/11/30 10:05:29;;;;;;;0.87;0.50;;;;;;;3.30;60.08;97618.62;1735402;81;21158;-54
2021/11/30 10:07:56;;;;;;;0.70;0.60;;;;;;;3.32;59.88;97617.19;1740736;79;21484;-55
2021/11/30 10:10:31;;;;;;;2.13;0.50;;;;;;;3.31;59.82;97613.70;1737645;79;22283;-55
2021/11/30 10:13:05;;;;;;;0.70;0.50;;;;;;;3.32;60.04;97619.38;1740429;79;21261;-55
2021/11/30 10:15:48;;;;;;;0.83;0.60;;;;;;;3.33;60.30;97621.57;1736498;79;21514;-56
2021/11/30 10:18:27;;;;;;;0.60;0.50;;;;;;;3.34;60.49;97625.95;1735921;79;22215;-55
2021/11/30 10:21:20;;;;;;;1.67;0.60;;;;;;;3.32;60.53;97614.06;1733873;79;22289;-55
2021/11/30 10:24:02;;;;;;;3.10;0.60;;;;;;;3.25;60.73;97627.30;1741839;79;21371;-55
2021/11/30 10:26:35;;;;;;;1.00;0.70;;;;;;;3.21;60.97;97634.20;1739766;79;21064;-55
2021/11/30 10:29:08;;;;;;;0.60;0.50;;;;;;;3.19;61.19;97638.73;1737062;79;21156;-54
2021/11/30 10:31:46;;;;;;;0.80;0.60;;;;;;;3.18;61.39;97629.89;1739756;79;21119;-55
2021/11/30 10:34:27;;;;;;;1.17;0.60;;;;;;;3.19;61.58;97640.92;1736307;79;21065;-55
2021/11/30 10:37:08;;;;;;;0.83;0.70;;;;;;;3.19;61.69;97648.03;1740697;79;21342;-55
2021/11/30 10:39:38;;;;;;;1.13;0.60;;;;;;;3.17;61.83;97648.58;1737694;79;21103;-55
2021/11/30 10:42:19;;;;;;;0.90;0.63;;;;;;;3.15;61.93;97639.84;1740154;80;22396;-55
2021/11/30 10:44:48;;;;;;;0.80;0.60;;;;;;;3.13;62.09;97656.34;1735945;79;21574;-55
2021/11/30 10:47:17;;;;;;;0.90;0.70;;;;;;;3.12;62.00;97654.14;1742870;80;20938;-55
2021/11/30 10:49:54;;;;;;;0.80;0.57;;;;;;;3.11;62.01;97654.22;1741708;79;21408;-55
2021/11/30 10:52:24;;;;;;;1.67;0.60;;;;;;;3.11;61.95;97651.56;1742373;81;20945;-55
2021/11/30 10:54:52;;;;;;;0.90;0.57;;;;;;;3.11;61.81;97648.44;1744159;79;22255;-55
2021/11/30 10:57:28;;;;;;;0.90;0.60;;;;;;;3.12;61.79;97654.61;1741349;79;20898;-55
2021/11/30 11:00:14;;;;;;;1.10;0.50;;;;;;;3.12;61.61;97643.98;1739545;79;21384;-54
2021/11/30 11:03:07;;;;;;;;;;;;;;;3.14;61.55;97648.75;1743825;79;20949;-54
2021/11/30 11:05:35;;;;;;;0.87;0.50;;;;;;;3.15;61.25;97647.82;1740087;79;20159;-55
2021/11/30 11:08:16;;;;;;;0.83;0.50;;;;;;;3.14;61.24;97652.74;1740196;79;21123;-55
2021/11/30 11:10:48;;;;;;;1.53;0.50;;;;;;;3.15;61.16;97643.83;1723774;80;20908;-55
2021/11/30 11:13:28;;;;;;;1.30;0.63;;;;;;;3.16;61.10;97634.89;1765039;78;21375;-55
2021/11/30 11:15:56;;;;;;;1.87;0.60;;;;;;;3.16;61.10;97644.20;1742306;80;21392;-54
2021/11/30 11:18:35;;;;;;;3.80;0.60;;;;;;;3.15;61.24;97642.51;1751220;80;20956;-55
2021/11/30 11:21:27;;;;;;;1.10;0.60;;;;;;;3.12;61.39;97642.66;1742244;80;21436;-55
2021/11/30 11:24:04;;;;;;;1.10;0.60;;;;;;;3.10;61.55;97643.19;1749608;80;20941;-54
2021/11/30 11:26:39;;;;;;;1.00;0.60;;;;;;;3.12;61.74;97642.66;1746879;80;22097;-55
2021/11/30 11:29:20;;;;;;;0.90;0.60;;;;;;;3.12;61.63;97641.32;1762961;78;21068;-54
2021/11/30 11:32:00;;;;;;;1.10;0.50;;;;;;;3.11;61.62;97635.14;1741579;80;21027;-54
2021/11/30 11:34:30;;;;;;;0.90;0.40;;;;;;;3.11;61.33;97642.26;1765739;78;21809;-53
2021/11/30 11:37:00;;;;;;;0.60;0.40;;;;;;;3.11;61.02;97646.24;1736299;80;21417;-53
2021/11/30 11:39:28;;;;;;;1.20;0.57;;;;;;;3.10;60.83;97642.72;1741327;80;20929;-53
2021/11/30 11:42:01;;;;;;;0.50;0.37;;;;;;;3.11;60.88;97645.78;1751306;80;21498;-53
2021/11/30 11:44:27;;;;;;;0.50;0.40;;;;;;;3.11;60.90;97639.13;1768526;78;20882;-53
2021/11/30 11:47:03;;;;;;;0.90;0.50;;;;;;;3.11;60.92;97643.12;1745999;80;21080;-53
2021/11/30 11:49:40;;;;;;;0.70;0.30;;;;;;;3.11;60.87;97647.11;1722643;80;21025;-54
2021/11/30 11:52:08;;;;;;;0.60;0.40;;;;;;;3.09;60.91;97659.61;1737965;80;21032;-54
2021/11/30 11:54:35;;;;;;;0.90;0.43;;;;;;;3.10;61.02;97655.16;1739987;80;21007;-53
2021/11/30 11:57:06;;;;;;;0.70;0.50;;;;;;;3.07;61.04;97645.53;1744689;80;20858;-54